sensor_id;sensor_type;location;lat;lon;timestamp;temperature;humidity
32815;DHT22;19165;48.182;16.374;2022-08-07T00:00:48;24.00;44.00
32815;DHT22;19165;48.182;16.374;2022-08-07T00:03:15;23.90;44.60
32815;DHT22;19165;48.182;16.374;2022-08-07T00:05:41;23.90;44.10
32815;DHT22;19165;48.182;16.374;2022-08-07T00:08:07;23.90;44.20
32815;DHT22;19165;48.182;16.374;2022-08-07T00:10:33;23.90;44.00
32815;DHT22;19165;48.182;16.374;2022-08-07T00:13:00;24.00;44.10
32815;DHT22;19165;48.182;16.374;2022-08-07T00:15:26;24.00;43.90
32815;DHT22;19165;48.182;16.374;2022-08-07T00:17:52;24.00;43.90
32815;DHT22;19165;48.182;16.374;2022-08-07T00:20:20;24.00;43.90
32815;DHT22;19165;48.182;16.374;2022-08-07T00:22:45;24.00;43.90
32815;DHT22;19165;48.182;16.374;2022-08-07T00:25:11;23.90;43.90
32815;DHT22;19165;48.182;16.374;2022-08-07T00:27:37;23.80;44.20
32815;DHT22;19165;48.182;16.374;2022-08-07T00:30:04;23.80;44.30
32815;DHT22;19165;48.182;16.374;2022-08-07T00:32:30;23.80;44.40
32815;DHT22;19165;48.182;16.374;2022-08-07T00:34:56;23.90;44.30
32815;DHT22;19165;48.182;16.374;2022-08-07T00:37:23;23.90;44.30
32815;DHT22;19165;48.182;16.374;2022-08-07T00:39:51;23.90;44.10
32815;DHT22;19165;48.182;16.374;2022-08-07T00:42:19;23.90;44.10
32815;DHT22;19165;48.182;16.374;2022-08-07T00:44:45;23.80;44.00
32815;DHT22;19165;48.182;16.374;2022-08-07T00:47:11;23.80;44.20
32815;DHT22;19165;48.182;16.374;2022-08-07T00:49:37;23.80;43.90
32815;DHT22;19165;48.182;16.374;2022-08-07T00:52:04;23.80;43.90
32815;DHT22;19165;48.182;16.374;2022-08-07T00:54:32;23.80;43.90
32815;DHT22;19165;48.182;16.374;2022-08-07T00:56:58;23.80;44.00
32815;DHT22;19165;48.182;16.374;2022-08-07T00:59:24;23.70;43.90
32815;DHT22;19165;48.182;16.374;2022-08-07T01:01:50;23.70;44.00
32815;DHT22;19165;48.182;16.374;2022-08-07T01:04:17;23.70;43.90
32815;DHT22;19165;48.182;16.374;2022-08-07T01:06:44;23.70;43.90
32815;DHT22;19165;48.182;16.374;2022-08-07T01:09:11;23.80;43.60
32815;DHT22;19165;48.182;16.374;2022-08-07T01:11:39;23.80;43.70
32815;DHT22;19165;48.182;16.374;2022-08-07T01:14:06;23.70;43.60
32815;DHT22;19165;48.182;16.374;2022-08-07T01:16:33;23.60;43.80
32815;DHT22;19165;48.182;16.374;2022-08-07T01:18:59;23.60;43.90
32815;DHT22;19165;48.182;16.374;2022-08-07T01:21:26;23.70;43.80
32815;DHT22;19165;48.182;16.374;2022-08-07T01:23:56;23.60;43.80
32815;DHT22;19165;48.182;16.374;2022-08-07T01:26:23;23.60;43.60
32815;DHT22;19165;48.182;16.374;2022-08-07T01:28:50;23.60;43.80
32815;DHT22;19165;48.182;16.374;2022-08-07T01:31:26;23.60;43.80
32815;DHT22;19165;48.182;16.374;2022-08-07T01:33:57;23.60;43.80
32815;DHT22;19165;48.182;16.374;2022-08-07T01:36:27;23.50;43.70
32815;DHT22;19165;48.182;16.374;2022-08-07T01:38:55;23.50;43.80
32815;DHT22;19165;48.182;16.374;2022-08-07T01:41:23;23.50;43.70
32815;DHT22;19165;48.182;16.374;2022-08-07T01:43:50;23.40;43.90
32815;DHT22;19165;48.182;16.374;2022-08-07T01:46:19;23.50;43.80
32815;DHT22;19165;48.182;16.374;2022-08-07T01:48:46;23.40;43.70
32815;DHT22;19165;48.182;16.374;2022-08-07T01:51:19;23.30;44.30
32815;DHT22;19165;48.182;16.374;2022-08-07T01:53:49;23.20;44.40
32815;DHT22;19165;48.182;16.374;2022-08-07T01:56:24;23.20;44.30
32815;DHT22;19165;48.182;16.374;2022-08-07T01:58:53;23.20;44.10
32815;DHT22;19165;48.182;16.374;2022-08-07T02:01:26;23.20;44.50
32815;DHT22;19165;48.182;16.374;2022-08-07T02:03:58;23.30;44.30
32815;DHT22;19165;48.182;16.374;2022-08-07T02:06:29;23.30;44.20
32815;DHT22;19165;48.182;16.374;2022-08-07T02:09:02;23.20;44.30
32815;DHT22;19165;48.182;16.374;2022-08-07T02:11:31;23.20;44.40
32815;DHT22;19165;48.182;16.374;2022-08-07T02:14:01;23.20;44.10
32815;DHT22;19165;48.182;16.374;2022-08-07T02:16:31;23.10;44.20
32815;DHT22;19165;48.182;16.374;2022-08-07T02:18:57;23.20;44.40
32815;DHT22;19165;48.182;16.374;2022-08-07T02:21:25;23.30;44.10
32815;DHT22;19165;48.182;16.374;2022-08-07T02:23:52;23.30;44.10
32815;DHT22;19165;48.182;16.374;2022-08-07T02:26:20;23.20;44.00
32815;DHT22;19165;48.182;16.374;2022-08-07T02:28:50;23.20;44.00
32815;DHT22;19165;48.182;16.374;2022-08-07T02:31:18;23.20;44.10
32815;DHT22;19165;48.182;16.374;2022-08-07T02:33:47;23.20;44.20
32815;DHT22;19165;48.182;16.374;2022-08-07T02:36:15;23.20;43.90
32815;DHT22;19165;48.182;16.374;2022-08-07T02:38:43;23.20;44.00
32815;DHT22;19165;48.182;16.374;2022-08-07T02:41:09;23.10;44.00
32815;DHT22;19165;48.182;16.374;2022-08-07T02:43:40;23.10;44.20
32815;DHT22;19165;48.182;16.374;2022-08-07T02:46:08;23.10;44.20
32815;DHT22;19165;48.182;16.374;2022-08-07T02:48:37;23.10;44.00
32815;DHT22;19165;48.182;16.374;2022-08-07T02:51:09;23.10;44.00
32815;DHT22;19165;48.182;16.374;2022-08-07T02:53:38;23.10;44.00
32815;DHT22;19165;48.182;16.374;2022-08-07T02:56:10;23.00;44.10
32815;DHT22;19165;48.182;16.374;2022-08-07T02:58:39;23.00;44.10
32815;DHT22;19165;48.182;16.374;2022-08-07T03:01:08;23.10;44.10
32815;DHT22;19165;48.182;16.374;2022-08-07T03:03:36;23.00;44.20
32815;DHT22;19165;48.182;16.374;2022-08-07T03:06:02;23.00;44.30
32815;DHT22;19165;48.182;16.374;2022-08-07T03:08:29;23.00;44.20
32815;DHT22;19165;48.182;16.374;2022-08-07T03:10:57;23.00;44.30
32815;DHT22;19165;48.182;16.374;2022-08-07T03:13:38;23.00;44.00
32815;DHT22;19165;48.182;16.374;2022-08-07T03:16:05;23.10;44.20
32815;DHT22;19165;48.182;16.374;2022-08-07T03:18:31;23.10;44.10
32815;DHT22;19165;48.182;16.374;2022-08-07T03:20:58;23.10;44.20
32815;DHT22;19165;48.182;16.374;2022-08-07T03:23:27;23.00;43.90
32815;DHT22;19165;48.182;16.374;2022-08-07T03:25:55;22.80;44.30
32815;DHT22;19165;48.182;16.374;2022-08-07T03:28:23;22.70;44.40
32815;DHT22;19165;48.182;16.374;2022-08-07T03:30:51;22.70;44.60
32815;DHT22;19165;48.182;16.374;2022-08-07T03:33:38;22.70;44.70
32815;DHT22;19165;48.182;16.374;2022-08-07T03:36:06;22.70;44.70
32815;DHT22;19165;48.182;16.374;2022-08-07T03:38:32;22.80;44.70
32815;DHT22;19165;48.182;16.374;2022-08-07T03:40:59;22.90;44.50
32815;DHT22;19165;48.182;16.374;2022-08-07T03:43:27;22.90;44.30
32815;DHT22;19165;48.182;16.374;2022-08-07T03:45:55;22.90;44.40
32815;DHT22;19165;48.182;16.374;2022-08-07T03:48:24;22.80;44.40
32815;DHT22;19165;48.182;16.374;2022-08-07T03:50:52;22.80;44.50
32815;DHT22;19165;48.182;16.374;2022-08-07T03:53:18;22.80;44.50
32815;DHT22;19165;48.182;16.374;2022-08-07T03:55:45;22.80;44.60
32815;DHT22;19165;48.182;16.374;2022-08-07T03:58:11;22.90;44.40
32815;DHT22;19165;48.182;16.374;2022-08-07T04:00:39;22.90;44.40
32815;DHT22;19165;48.182;16.374;2022-08-07T04:03:07;22.90;44.30
32815;DHT22;19165;48.182;16.374;2022-08-07T04:05:39;22.90;44.40
32815;DHT22;19165;48.182;16.374;2022-08-07T04:08:09;22.90;44.40
32815;DHT22;19165;48.182;16.374;2022-08-07T04:10:35;22.90;44.50
32815;DHT22;19165;48.182;16.374;2022-08-07T04:13:02;22.90;44.30
32815;DHT22;19165;48.182;16.374;2022-08-07T04:15:28;22.80;44.50
32815;DHT22;19165;48.182;16.374;2022-08-07T04:17:54;22.80;44.40
32815;DHT22;19165;48.182;16.374;2022-08-07T04:20:23;22.80;44.50
32815;DHT22;19165;48.182;16.374;2022-08-07T04:22:49;22.80;44.60
32815;DHT22;19165;48.182;16.374;2022-08-07T04:25:17;22.90;44.70
32815;DHT22;19165;48.182;16.374;2022-08-07T04:27:44;22.90;44.50
32815;DHT22;19165;48.182;16.374;2022-08-07T04:30:12;22.90;44.30
32815;DHT22;19165;48.182;16.374;2022-08-07T04:32:53;22.90;44.40
32815;DHT22;19165;48.182;16.374;2022-08-07T04:35:21;22.90;44.60
32815;DHT22;19165;48.182;16.374;2022-08-07T04:37:49;23.00;44.60
32815;DHT22;19165;48.182;16.374;2022-08-07T04:40:15;23.00;45.00
32815;DHT22;19165;48.182;16.374;2022-08-07T04:42:42;23.10;44.40
32815;DHT22;19165;48.182;16.374;2022-08-07T04:45:09;23.10;44.30
32815;DHT22;19165;48.182;16.374;2022-08-07T04:47:40;23.20;44.30
32815;DHT22;19165;48.182;16.374;2022-08-07T04:50:11;23.10;44.20
32815;DHT22;19165;48.182;16.374;2022-08-07T04:52:58;23.10;44.40
32815;DHT22;19165;48.182;16.374;2022-08-07T04:55:33;23.10;44.50
32815;DHT22;19165;48.182;16.374;2022-08-07T04:58:05;23.10;44.30
32815;DHT22;19165;48.182;16.374;2022-08-07T05:00:39;23.20;44.20
32815;DHT22;19165;48.182;16.374;2022-08-07T05:03:15;23.10;44.30
32815;DHT22;19165;48.182;16.374;2022-08-07T05:05:48;23.10;44.40
32815;DHT22;19165;48.182;16.374;2022-08-07T05:08:21;23.20;44.40
32815;DHT22;19165;48.182;16.374;2022-08-07T05:10:51;23.20;44.30
32815;DHT22;19165;48.182;16.374;2022-08-07T05:13:25;23.30;44.20
32815;DHT22;19165;48.182;16.374;2022-08-07T05:15:54;23.40;44.00
32815;DHT22;19165;48.182;16.374;2022-08-07T05:18:24;23.40;44.00
32815;DHT22;19165;48.182;16.374;2022-08-07T05:20:53;23.40;44.10
32815;DHT22;19165;48.182;16.374;2022-08-07T05:23:26;23.40;43.80
32815;DHT22;19165;48.182;16.374;2022-08-07T05:25:54;23.40;43.50
32815;DHT22;19165;48.182;16.374;2022-08-07T05:28:22;23.30;43.50
32815;DHT22;19165;48.182;16.374;2022-08-07T05:30:53;23.20;43.60
32815;DHT22;19165;48.182;16.374;2022-08-07T05:33:22;23.00;44.10
32815;DHT22;19165;48.182;16.374;2022-08-07T05:35:49;22.80;44.40
32815;DHT22;19165;48.182;16.374;2022-08-07T05:38:16;22.70;44.70
32815;DHT22;19165;48.182;16.374;2022-08-07T05:40:43;22.60;44.80
32815;DHT22;19165;48.182;16.374;2022-08-07T05:43:09;22.60;45.00
32815;DHT22;19165;48.182;16.374;2022-08-07T05:45:36;22.60;45.00
32815;DHT22;19165;48.182;16.374;2022-08-07T05:48:04;22.60;45.00
32815;DHT22;19165;48.182;16.374;2022-08-07T05:50:37;22.60;45.00
32815;DHT22;19165;48.182;16.374;2022-08-07T05:53:04;22.60;45.10
32815;DHT22;19165;48.182;16.374;2022-08-07T05:55:32;22.50;45.20
32815;DHT22;19165;48.182;16.374;2022-08-07T05:58:01;22.50;45.20
32815;DHT22;19165;48.182;16.374;2022-08-07T06:00:28;22.60;45.20
32815;DHT22;19165;48.182;16.374;2022-08-07T06:03:00;22.60;45.20
32815;DHT22;19165;48.182;16.374;2022-08-07T06:05:29;22.60;45.10
32815;DHT22;19165;48.182;16.374;2022-08-07T06:08:01;22.60;44.90
32815;DHT22;19165;48.182;16.374;2022-08-07T06:10:29;22.70;44.90
32815;DHT22;19165;48.182;16.374;2022-08-07T06:12:56;22.80;44.80
32815;DHT22;19165;48.182;16.374;2022-08-07T06:15:24;22.90;44.70
32815;DHT22;19165;48.182;16.374;2022-08-07T06:17:52;23.00;44.50
32815;DHT22;19165;48.182;16.374;2022-08-07T06:20:19;22.90;44.30
32815;DHT22;19165;48.182;16.374;2022-08-07T06:22:46;23.00;44.30
32815;DHT22;19165;48.182;16.374;2022-08-07T06:25:24;23.00;44.10
32815;DHT22;19165;48.182;16.374;2022-08-07T06:27:50;23.10;44.10
32815;DHT22;19165;48.182;16.374;2022-08-07T06:30:16;23.20;44.00
32815;DHT22;19165;48.182;16.374;2022-08-07T06:32:43;23.30;43.80
32815;DHT22;19165;48.182;16.374;2022-08-07T06:35:09;23.40;43.40
32815;DHT22;19165;48.182;16.374;2022-08-07T06:37:36;23.60;43.30
32815;DHT22;19165;48.182;16.374;2022-08-07T06:40:04;23.70;43.60
32815;DHT22;19165;48.182;16.374;2022-08-07T06:42:32;23.80;42.90
32815;DHT22;19165;48.182;16.374;2022-08-07T06:45:13;24.10;42.60
32815;DHT22;19165;48.182;16.374;2022-08-07T06:47:42;24.40;42.00
32815;DHT22;19165;48.182;16.374;2022-08-07T06:50:11;24.60;41.30
32815;DHT22;19165;48.182;16.374;2022-08-07T06:52:41;24.60;41.00
32815;DHT22;19165;48.182;16.374;2022-08-07T06:55:14;24.60;41.20
32815;DHT22;19165;48.182;16.374;2022-08-07T06:57:43;24.80;40.90
32815;DHT22;19165;48.182;16.374;2022-08-07T07:00:11;25.00;40.70
32815;DHT22;19165;48.182;16.374;2022-08-07T07:02:37;25.20;40.20
32815;DHT22;19165;48.182;16.374;2022-08-07T07:05:05;25.30;39.90
32815;DHT22;19165;48.182;16.374;2022-08-07T07:07:32;25.30;39.80
32815;DHT22;19165;48.182;16.374;2022-08-07T07:09:58;25.40;39.80
32815;DHT22;19165;48.182;16.374;2022-08-07T07:12:36;25.50;39.60
32815;DHT22;19165;48.182;16.374;2022-08-07T07:15:06;25.70;39.40
32815;DHT22;19165;48.182;16.374;2022-08-07T07:17:36;25.80;38.90
32815;DHT22;19165;48.182;16.374;2022-08-07T07:20:07;25.90;38.90
32815;DHT22;19165;48.182;16.374;2022-08-07T07:22:38;25.90;39.00
32815;DHT22;19165;48.182;16.374;2022-08-07T07:25:06;25.90;38.70
32815;DHT22;19165;48.182;16.374;2022-08-07T07:27:35;26.10;38.60
32815;DHT22;19165;48.182;16.374;2022-08-07T07:30:05;26.10;38.40
32815;DHT22;19165;48.182;16.374;2022-08-07T07:32:33;26.10;38.40
32815;DHT22;19165;48.182;16.374;2022-08-07T07:35:04;26.20;38.40
32815;DHT22;19165;48.182;16.374;2022-08-07T07:37:33;26.40;38.10
32815;DHT22;19165;48.182;16.374;2022-08-07T07:40:05;26.60;37.70
32815;DHT22;19165;48.182;16.374;2022-08-07T07:42:33;26.70;37.50
32815;DHT22;19165;48.182;16.374;2022-08-07T07:45:01;26.80;37.40
32815;DHT22;19165;48.182;16.374;2022-08-07T07:47:29;26.90;37.60
32815;DHT22;19165;48.182;16.374;2022-08-07T07:49:56;26.90;37.10
32815;DHT22;19165;48.182;16.374;2022-08-07T07:52:23;26.90;37.00
32815;DHT22;19165;48.182;16.374;2022-08-07T07:54:50;26.90;37.00
32815;DHT22;19165;48.182;16.374;2022-08-07T07:57:20;26.80;37.20
32815;DHT22;19165;48.182;16.374;2022-08-07T07:59:48;26.70;37.30
32815;DHT22;19165;48.182;16.374;2022-08-07T08:02:15;26.60;37.70
32815;DHT22;19165;48.182;16.374;2022-08-07T08:04:42;26.50;37.60
32815;DHT22;19165;48.182;16.374;2022-08-07T08:07:09;26.40;37.80
32815;DHT22;19165;48.182;16.374;2022-08-07T08:09:37;26.60;37.90
32815;DHT22;19165;48.182;16.374;2022-08-07T08:12:05;27.00;37.60
32815;DHT22;19165;48.182;16.374;2022-08-07T08:14:34;27.70;36.80
32815;DHT22;19165;48.182;16.374;2022-08-07T08:17:01;28.30;36.00
32815;DHT22;19165;48.182;16.374;2022-08-07T08:19:29;28.80;35.00
32815;DHT22;19165;48.182;16.374;2022-08-07T08:21:58;29.10;34.60
32815;DHT22;19165;48.182;16.374;2022-08-07T08:24:45;29.20;34.10
32815;DHT22;19165;48.182;16.374;2022-08-07T08:27:33;29.20;34.10
32815;DHT22;19165;48.182;16.374;2022-08-07T08:30:04;29.10;33.90
32815;DHT22;19165;48.182;16.374;2022-08-07T08:32:32;29.20;34.00
32815;DHT22;19165;48.182;16.374;2022-08-07T08:35:00;29.10;33.90
32815;DHT22;19165;48.182;16.374;2022-08-07T08:37:30;29.00;34.10
32815;DHT22;19165;48.182;16.374;2022-08-07T08:39:57;28.90;34.20
32815;DHT22;19165;48.182;16.374;2022-08-07T08:42:26;28.90;34.30
32815;DHT22;19165;48.182;16.374;2022-08-07T08:45:04;28.80;34.30
32815;DHT22;19165;48.182;16.374;2022-08-07T08:47:42;28.70;34.40
32815;DHT22;19165;48.182;16.374;2022-08-07T08:50:13;28.60;34.50
32815;DHT22;19165;48.182;16.374;2022-08-07T08:52:49;28.60;34.60
32815;DHT22;19165;48.182;16.374;2022-08-07T08:55:21;28.50;34.80
32815;DHT22;19165;48.182;16.374;2022-08-07T08:57:57;28.10;35.10
32815;DHT22;19165;48.182;16.374;2022-08-07T09:00:31;27.80;35.70
32815;DHT22;19165;48.182;16.374;2022-08-07T09:03:14;27.90;35.80
32815;DHT22;19165;48.182;16.374;2022-08-07T09:05:50;27.80;35.80
32815;DHT22;19165;48.182;16.374;2022-08-07T09:08:22;27.80;36.00
32815;DHT22;19165;48.182;16.374;2022-08-07T09:10:59;27.80;36.10
32815;DHT22;19165;48.182;16.374;2022-08-07T09:13:33;27.80;36.00
32815;DHT22;19165;48.182;16.374;2022-08-07T09:16:09;27.90;36.00
32815;DHT22;19165;48.182;16.374;2022-08-07T09:19:16;28.00;36.00
32815;DHT22;19165;48.182;16.374;2022-08-07T09:21:51;28.20;35.70
32815;DHT22;19165;48.182;16.374;2022-08-07T09:24:29;28.40;35.60
32815;DHT22;19165;48.182;16.374;2022-08-07T09:27:04;28.70;35.20
32815;DHT22;19165;48.182;16.374;2022-08-07T09:29:42;29.00;34.80
32815;DHT22;19165;48.182;16.374;2022-08-07T09:35:05;29.60;34.00
32815;DHT22;19165;48.182;16.374;2022-08-07T09:37:37;29.70;33.60
32815;DHT22;19165;48.182;16.374;2022-08-07T09:40:13;29.60;33.80
32815;DHT22;19165;48.182;16.374;2022-08-07T09:42:49;29.70;33.80
32815;DHT22;19165;48.182;16.374;2022-08-07T09:45:20;30.00;33.70
32815;DHT22;19165;48.182;16.374;2022-08-07T09:48:08;30.70;33.00
32815;DHT22;19165;48.182;16.374;2022-08-07T09:50:49;31.60;31.90
32815;DHT22;19165;48.182;16.374;2022-08-07T09:53:20;32.10;31.10
32815;DHT22;19165;48.182;16.374;2022-08-07T09:56:03;32.30;30.70
32815;DHT22;19165;48.182;16.374;2022-08-07T09:58:53;32.20;30.30
32815;DHT22;19165;48.182;16.374;2022-08-07T10:01:33;32.20;30.40
32815;DHT22;19165;48.182;16.374;2022-08-07T10:04:27;32.50;30.40
32815;DHT22;19165;48.182;16.374;2022-08-07T10:07:26;33.60;29.90
32815;DHT22;19165;48.182;16.374;2022-08-07T10:10:12;34.80;28.90
32815;DHT22;19165;48.182;16.374;2022-08-07T10:13:08;35.70;27.50
32815;DHT22;19165;48.182;16.374;2022-08-07T10:15:58;35.70;27.40
32815;DHT22;19165;48.182;16.374;2022-08-07T10:18:39;35.60;27.30
32815;DHT22;19165;48.182;16.374;2022-08-07T10:21:23;35.70;27.10
32815;DHT22;19165;48.182;16.374;2022-08-07T10:24:03;36.40;26.80
32815;DHT22;19165;48.182;16.374;2022-08-07T10:29:41;38.20;25.00
32815;DHT22;19165;48.182;16.374;2022-08-07T10:32:30;38.00;25.10
32815;DHT22;19165;48.182;16.374;2022-08-07T10:35:07;38.00;25.00
32815;DHT22;19165;48.182;16.374;2022-08-07T10:37:54;38.50;24.80
32815;DHT22;19165;48.182;16.374;2022-08-07T10:40:28;40.10;23.90
32815;DHT22;19165;48.182;16.374;2022-08-07T10:42:59;41.00;23.30
32815;DHT22;19165;48.182;16.374;2022-08-07T10:45:29;40.60;23.00
32815;DHT22;19165;48.182;16.374;2022-08-07T10:48:06;40.20;23.10
32815;DHT22;19165;48.182;16.374;2022-08-07T10:50:41;39.60;23.60
32815;DHT22;19165;48.182;16.374;2022-08-07T10:53:18;39.30;23.80
32815;DHT22;19165;48.182;16.374;2022-08-07T10:55:48;39.30;23.90
32815;DHT22;19165;48.182;16.374;2022-08-07T10:58:25;39.20;23.70
32815;DHT22;19165;48.182;16.374;2022-08-07T11:01:03;39.50;24.00
32815;DHT22;19165;48.182;16.374;2022-08-07T11:03:40;41.10;23.00
32815;DHT22;19165;48.182;16.374;2022-08-07T11:06:13;42.00;22.30
32815;DHT22;19165;48.182;16.374;2022-08-07T11:08:49;42.60;22.00
32815;DHT22;19165;48.182;16.374;2022-08-07T11:11:20;43.10;21.60
32815;DHT22;19165;48.182;16.374;2022-08-07T11:13:51;43.30;21.20
32815;DHT22;19165;48.182;16.374;2022-08-07T11:16:22;43.20;21.20
32815;DHT22;19165;48.182;16.374;2022-08-07T11:18:55;43.20;21.20
32815;DHT22;19165;48.182;16.374;2022-08-07T11:21:30;43.10;21.20
32815;DHT22;19165;48.182;16.374;2022-08-07T11:24:03;42.50;21.20
32815;DHT22;19165;48.182;16.374;2022-08-07T11:26:32;41.90;21.50
32815;DHT22;19165;48.182;16.374;2022-08-07T11:29:03;41.00;21.90
32815;DHT22;19165;48.182;16.374;2022-08-07T11:31:42;40.10;22.60
32815;DHT22;19165;48.182;16.374;2022-08-07T11:34:16;38.90;23.20
32815;DHT22;19165;48.182;16.374;2022-08-07T11:36:53;37.90;24.00
32815;DHT22;19165;48.182;16.374;2022-08-07T11:39:31;36.90;24.80
32815;DHT22;19165;48.182;16.374;2022-08-07T11:42:12;36.00;25.50
32815;DHT22;19165;48.182;16.374;2022-08-07T11:44:50;35.40;26.00
32815;DHT22;19165;48.182;16.374;2022-08-07T11:47:28;34.80;26.50
32815;DHT22;19165;48.182;16.374;2022-08-07T11:50:20;34.20;27.10
32815;DHT22;19165;48.182;16.374;2022-08-07T11:53:00;33.70;27.60
32815;DHT22;19165;48.182;16.374;2022-08-07T11:55:42;33.20;28.10
32815;DHT22;19165;48.182;16.374;2022-08-07T11:58:17;32.80;28.50
32815;DHT22;19165;48.182;16.374;2022-08-07T12:00:57;32.60;28.60
32815;DHT22;19165;48.182;16.374;2022-08-07T12:03:56;32.30;28.80
32815;DHT22;19165;48.182;16.374;2022-08-07T12:06:42;32.10;29.00
32815;DHT22;19165;48.182;16.374;2022-08-07T12:09:14;32.00;29.10
32815;DHT22;19165;48.182;16.374;2022-08-07T12:11:46;31.80;29.20
32815;DHT22;19165;48.182;16.374;2022-08-07T12:14:16;31.70;29.50
32815;DHT22;19165;48.182;16.374;2022-08-07T12:16:45;31.50;29.60
32815;DHT22;19165;48.182;16.374;2022-08-07T12:19:20;31.40;29.70
32815;DHT22;19165;48.182;16.374;2022-08-07T12:21:56;31.20;29.80
32815;DHT22;19165;48.182;16.374;2022-08-07T12:24:29;31.20;29.80
32815;DHT22;19165;48.182;16.374;2022-08-07T12:27:02;31.20;34.70
32815;DHT22;19165;48.182;16.374;2022-08-07T12:29:33;31.30;35.20
32815;DHT22;19165;48.182;16.374;2022-08-07T12:32:11;31.40;35.20
32815;DHT22;19165;48.182;16.374;2022-08-07T12:34:40;31.40;33.50
32815;DHT22;19165;48.182;16.374;2022-08-07T12:37:09;31.40;33.30
32815;DHT22;19165;48.182;16.374;2022-08-07T12:39:38;31.30;32.60
32815;DHT22;19165;48.182;16.374;2022-08-07T12:42:07;31.20;33.00
32815;DHT22;19165;48.182;16.374;2022-08-07T12:44:37;31.30;33.60
32815;DHT22;19165;48.182;16.374;2022-08-07T12:47:09;31.30;33.30
32815;DHT22;19165;48.182;16.374;2022-08-07T12:49:41;31.30;32.90
32815;DHT22;19165;48.182;16.374;2022-08-07T12:52:14;31.40;32.90
32815;DHT22;19165;48.182;16.374;2022-08-07T12:54:46;31.40;32.60
32815;DHT22;19165;48.182;16.374;2022-08-07T12:57:21;31.60;31.60
32815;DHT22;19165;48.182;16.374;2022-08-07T12:59:52;31.80;31.60
32815;DHT22;19165;48.182;16.374;2022-08-07T13:03:00;32.00;31.20
32815;DHT22;19165;48.182;16.374;2022-08-07T13:05:40;32.30;31.10
32815;DHT22;19165;48.182;16.374;2022-08-07T13:08:21;32.60;30.80
32815;DHT22;19165;48.182;16.374;2022-08-07T13:10:59;32.80;29.70
32815;DHT22;19165;48.182;16.374;2022-08-07T13:13:35;33.10;30.00
32815;DHT22;19165;48.182;16.374;2022-08-07T13:16:14;33.40;29.20
32815;DHT22;19165;48.182;16.374;2022-08-07T13:18:48;33.90;29.80
32815;DHT22;19165;48.182;16.374;2022-08-07T13:21:19;34.40;29.20
32815;DHT22;19165;48.182;16.374;2022-08-07T13:23:51;35.00;29.30
32815;DHT22;19165;48.182;16.374;2022-08-07T13:26:24;35.50;28.00
32815;DHT22;19165;48.182;16.374;2022-08-07T13:28:58;36.30;28.00
32815;DHT22;19165;48.182;16.374;2022-08-07T13:31:30;37.60;26.80
32815;DHT22;19165;48.182;16.374;2022-08-07T13:34:04;39.00;26.10
32815;DHT22;19165;48.182;16.374;2022-08-07T13:36:35;40.20;25.20
32815;DHT22;19165;48.182;16.374;2022-08-07T13:39:09;41.20;24.20
32815;DHT22;19165;48.182;16.374;2022-08-07T13:41:41;41.30;23.40
32815;DHT22;19165;48.182;16.374;2022-08-07T13:44:09;41.30;23.30
32815;DHT22;19165;48.182;16.374;2022-08-07T13:46:41;41.50;23.00
32815;DHT22;19165;48.182;16.374;2022-08-07T13:49:11;41.60;23.10
32815;DHT22;19165;48.182;16.374;2022-08-07T13:51:38;41.80;23.10
32815;DHT22;19165;48.182;16.374;2022-08-07T13:54:11;42.40;22.60
32815;DHT22;19165;48.182;16.374;2022-08-07T13:56:39;42.70;22.20
32815;DHT22;19165;48.182;16.374;2022-08-07T13:59:10;43.00;21.50
32815;DHT22;19165;48.182;16.374;2022-08-07T14:01:42;43.00;21.40
32815;DHT22;19165;48.182;16.374;2022-08-07T14:04:10;42.50;21.50
32815;DHT22;19165;48.182;16.374;2022-08-07T14:06:39;41.70;22.40
32815;DHT22;19165;48.182;16.374;2022-08-07T14:09:07;41.10;22.80
32815;DHT22;19165;48.182;16.374;2022-08-07T14:11:40;40.90;23.00
32815;DHT22;19165;48.182;16.374;2022-08-07T14:14:11;40.60;23.20
32815;DHT22;19165;48.182;16.374;2022-08-07T14:16:41;40.60;23.50
32815;DHT22;19165;48.182;16.374;2022-08-07T14:19:15;40.40;23.10
32815;DHT22;19165;48.182;16.374;2022-08-07T14:21:43;40.20;23.30
32815;DHT22;19165;48.182;16.374;2022-08-07T14:24:14;40.30;23.70
32815;DHT22;19165;48.182;16.374;2022-08-07T14:26:49;40.70;23.50
32815;DHT22;19165;48.182;16.374;2022-08-07T14:29:19;40.70;23.20
32815;DHT22;19165;48.182;16.374;2022-08-07T14:31:46;40.70;23.00
32815;DHT22;19165;48.182;16.374;2022-08-07T14:34:14;40.60;23.00
32815;DHT22;19165;48.182;16.374;2022-08-07T14:36:41;40.50;23.20
32815;DHT22;19165;48.182;16.374;2022-08-07T14:39:09;40.40;23.40
32815;DHT22;19165;48.182;16.374;2022-08-07T14:41:36;40.00;23.70
32815;DHT22;19165;48.182;16.374;2022-08-07T14:44:08;39.50;23.70
32815;DHT22;19165;48.182;16.374;2022-08-07T14:46:37;38.60;23.90
32815;DHT22;19165;48.182;16.374;2022-08-07T14:49:05;37.90;24.80
32815;DHT22;19165;48.182;16.374;2022-08-07T14:51:33;37.30;25.30
32815;DHT22;19165;48.182;16.374;2022-08-07T14:54:00;36.70;25.80
32815;DHT22;19165;48.182;16.374;2022-08-07T14:56:28;36.30;25.80
32815;DHT22;19165;48.182;16.374;2022-08-07T14:59:01;35.80;26.40
32815;DHT22;19165;48.182;16.374;2022-08-07T15:01:31;35.30;26.70
32815;DHT22;19165;48.182;16.374;2022-08-07T15:04:01;35.00;26.90
32815;DHT22;19165;48.182;16.374;2022-08-07T15:06:31;34.80;27.30
32815;DHT22;19165;48.182;16.374;2022-08-07T15:09:02;34.50;27.60
32815;DHT22;19165;48.182;16.374;2022-08-07T15:11:30;34.20;27.80
32815;DHT22;19165;48.182;16.374;2022-08-07T15:13:59;33.90;28.20
32815;DHT22;19165;48.182;16.374;2022-08-07T15:16:33;33.60;28.30
32815;DHT22;19165;48.182;16.374;2022-08-07T15:19:05;33.20;28.40
32815;DHT22;19165;48.182;16.374;2022-08-07T15:21:35;33.00;28.90
32815;DHT22;19165;48.182;16.374;2022-08-07T15:24:05;32.70;29.50
32815;DHT22;19165;48.182;16.374;2022-08-07T15:26:35;32.50;29.00
32815;DHT22;19165;48.182;16.374;2022-08-07T15:29:02;32.20;29.20
32815;DHT22;19165;48.182;16.374;2022-08-07T15:31:28;32.00;29.50
32815;DHT22;19165;48.182;16.374;2022-08-07T15:34:00;31.80;29.90
32815;DHT22;19165;48.182;16.374;2022-08-07T15:36:28;31.50;30.00
32815;DHT22;19165;48.182;16.374;2022-08-07T15:38:54;31.40;30.30
32815;DHT22;19165;48.182;16.374;2022-08-07T15:41:24;31.20;30.60
32815;DHT22;19165;48.182;16.374;2022-08-07T15:43:58;31.10;31.10
32815;DHT22;19165;48.182;16.374;2022-08-07T15:46:25;31.00;31.10